createdAt,value
2018-11-23T00:00:22.537Z,94.10
2018-11-23T00:01:22.553Z,95.10
2018-11-23T00:02:22.518Z,94.21
2018-11-23T00:03:22.511Z,94.42
2018-11-23T00:04:22.493Z,94.06
2018-11-23T00:05:22.485Z,94.06
2018-11-23T00:06:22.503Z,94.21
2018-11-23T00:07:22.467Z,94.17
2018-11-23T00:08:22.451Z,94.06
2018-11-23T00:09:22.445Z,94.10
2018-11-23T00:10:22.430Z,93.79
2018-11-23T00:11:22.449Z,94.52
2018-11-23T00:12:22.408Z,94.42
2018-11-23T00:13:22.399Z,94.63
2018-11-23T00:14:22.388Z,94.63
2018-11-23T00:15:22.377Z,94.73
2018-11-23T00:16:22.365Z,94.63
2018-11-23T00:17:22.406Z,94.63
2018-11-23T00:18:22.346Z,94.63
2018-11-23T00:19:22.332Z,95.04
2018-11-23T00:20:22.324Z,94.73
2018-11-23T00:21:22.311Z,94.42
2018-11-23T00:22:22.301Z,95.25
2018-11-23T00:23:22.324Z,94.52
2018-11-23T00:24:22.283Z,94.84
2018-11-23T00:25:22.272Z,95.36
2018-11-23T00:26:22.258Z,94.73
2018-11-23T00:27:22.255Z,95.15
2018-11-23T00:28:22.268Z,95.15
2018-11-23T00:29:22.244Z,94.84
2018-11-23T00:30:22.221Z,94.84
2018-11-23T00:31:22.205Z,95.04
2018-11-23T00:32:22.197Z,94.63
2018-11-23T00:33:22.200Z,95.15
2018-11-23T00:34:22.199Z,94.94
2018-11-23T00:35:22.166Z,94.52
2018-11-23T00:36:22.151Z,94.84
2018-11-23T00:37:22.144Z,95.04
2018-11-23T00:38:22.151Z,94.73
2018-11-23T00:39:22.143Z,94.73
2018-11-23T00:40:22.121Z,95.25
2018-11-23T00:41:22.110Z,94.73
2018-11-23T00:42:22.091Z,94.52
2018-11-23T00:43:22.075Z,94.10
2018-11-23T00:44:22.106Z,94.63
2018-11-23T00:45:22.061Z,94.42
2018-11-23T00:46:22.044Z,95.15
2018-11-23T00:47:22.044Z,94.73
2018-11-23T00:48:22.024Z,94.73
2018-11-23T00:49:22.012Z,95.04
2018-11-23T00:50:22.033Z,94.84
2018-11-23T00:51:21.996Z,95.04
2018-11-23T00:52:21.982Z,94.73
2018-11-23T00:53:21.971Z,94.73
2018-11-23T00:54:21.958Z,95.04
2018-11-23T00:55:21.984Z,94.94
2018-11-23T00:56:21.940Z,95.04
2018-11-23T00:57:21.932Z,95.50
2018-11-23T00:58:21.918Z,95.61
2018-11-23T00:59:21.906Z,95.61
2018-11-23T01:00:21.895Z,96.13
2018-11-23T01:01:21.924Z,95.92
2018-11-23T01:02:21.873Z,96.03
2018-11-23T01:03:21.863Z,94.98
2018-11-23T01:04:21.860Z,94.98
2018-11-23T01:05:21.847Z,96.09
2018-11-23T01:06:21.851Z,95.40
2018-11-23T01:07:21.818Z,94.94
2018-11-23T01:08:21.808Z,94.98
2018-11-23T01:09:21.798Z,95.40
2018-11-23T01:10:21.803Z,95.40
2018-11-23T01:11:21.802Z,95.15
2018-11-23T01:12:21.770Z,95.40
2018-11-23T01:13:21.754Z,95.19
2018-11-23T01:14:21.787Z,95.36
2018-11-23T01:15:21.731Z,94.73
2018-11-23T01:16:21.750Z,96.13
2018-11-23T01:17:21.709Z,94.88
2018-11-23T01:18:21.699Z,94.98
2018-11-23T01:19:21.699Z,94.78
2018-11-23T01:20:21.680Z,95.61
2018-11-23T01:21:21.682Z,95.29
2018-11-23T01:22:21.684Z,95.40
2018-11-23T01:23:21.648Z,95.09
2018-11-23T01:24:21.635Z,96.23
2018-11-23T01:25:21.630Z,94.98
2018-11-23T01:26:21.613Z,95.09
2018-11-23T01:27:21.640Z,95.09
2018-11-23T01:28:21.596Z,95.44
2018-11-23T01:29:21.582Z,95.86
2018-11-23T01:30:21.575Z,95.44
2018-11-23T01:31:21.564Z,95.97
2018-11-23T01:32:21.550Z,96.34
2018-11-23T01:33:21.572Z,96.34
2018-11-23T01:34:21.529Z,96.38
2018-11-23T01:35:21.519Z,96.13
2018-11-23T01:36:21.509Z,95.92
2018-11-23T01:37:21.493Z,95.92
2018-11-23T01:38:21.508Z,96.03
2018-11-23T01:39:21.475Z,95.82
2018-11-23T01:40:21.469Z,95.92
2018-11-23T01:41:21.456Z,95.40
2018-11-23T01:42:21.441Z,96.34
2018-11-23T01:43:21.463Z,95.72
2018-11-23T01:44:21.421Z,95.92
2018-11-23T01:45:21.414Z,95.72
2018-11-23T01:46:21.398Z,95.40
2018-11-23T01:47:21.394Z,96.03
2018-11-23T01:48:21.464Z,95.50
2018-11-23T01:49:21.395Z,95.50
2018-11-23T01:50:21.356Z,95.72
2018-11-23T01:51:21.350Z,95.40
2018-11-23T01:52:21.337Z,95.40
2018-11-23T01:53:21.328Z,95.29
2018-11-23T01:54:21.359Z,95.29
2018-11-23T01:55:21.305Z,95.82
2018-11-23T01:56:21.301Z,95.29
2018-11-23T01:57:21.288Z,95.34
2018-11-23T01:58:21.283Z,95.29
2018-11-23T01:59:21.258Z,95.86
2018-11-23T02:00:21.271Z,95.97
2018-11-23T02:01:21.242Z,95.86
2018-11-23T02:02:21.232Z,95.23
2018-11-23T02:03:21.226Z,95.34
2018-11-23T02:04:21.210Z,96.07
2018-11-23T02:05:21.223Z,96.07
2018-11-23T02:06:21.181Z,95.97
2018-11-23T02:07:21.173Z,95.80
2018-11-23T02:08:21.162Z,96.11
2018-11-23T02:09:21.153Z,96.84
2018-11-23T02:10:21.179Z,97.37
2018-11-23T02:11:21.128Z,97.58
2018-11-23T02:12:21.126Z,98.10
2018-11-23T02:13:22.084Z,97.68
2018-11-23T02:14:21.100Z,97.78
2018-11-23T02:15:21.097Z,97.68
2018-11-23T02:16:21.104Z,97.05
2018-11-23T02:17:21.113Z,97.01
2018-11-23T02:18:21.056Z,96.95
2018-11-23T02:19:21.046Z,97.27
2018-11-23T02:20:21.032Z,97.05
2018-11-23T02:21:21.054Z,97.37
2018-11-23T02:22:21.011Z,96.53
2018-11-23T02:23:21.015Z,97.47
2018-11-23T02:24:21.003Z,97.27
2018-11-23T02:25:20.986Z,97.27
2018-11-23T02:26:20.971Z,97.78
2018-11-23T02:27:20.995Z,97.47
2018-11-23T02:28:20.946Z,97.47
2018-11-23T02:29:20.944Z,97.47
2018-11-23T02:30:20.930Z,97.47
2018-11-23T02:31:20.913Z,97.47
2018-11-23T02:32:20.935Z,97.58
2018-11-23T02:33:20.897Z,97.53
2018-11-23T02:34:20.897Z,97.74
2018-11-23T02:35:20.878Z,96.91
2018-11-23T02:36:20.858Z,97.32
2018-11-23T02:37:20.880Z,96.70
2018-11-23T02:38:20.843Z,96.59
2018-11-23T02:39:20.835Z,96.17
2018-11-23T02:40:20.826Z,96.49
2018-11-23T02:41:20.810Z,96.38
2018-11-23T02:42:20.835Z,96.70
2018-11-23T02:43:20.789Z,96.17
2018-11-23T02:44:20.772Z,96.38
2018-11-23T02:45:20.767Z,96.91
2018-11-23T02:46:20.754Z,96.49
2018-11-23T02:47:20.744Z,97.43
2018-11-23T02:48:20.754Z,96.59
2018-11-23T02:49:20.756Z,96.49
2018-11-23T02:50:20.712Z,96.03
2018-11-23T02:51:20.717Z,96.34
2018-11-23T02:52:20.702Z,95.61
2018-11-23T02:53:20.782Z,96.23
2018-11-23T02:54:20.720Z,95.82
2018-11-23T02:55:20.656Z,96.34
2018-11-23T02:56:20.648Z,96.03
2018-11-23T02:57:20.651Z,95.82
2018-11-23T02:58:20.626Z,95.92
2018-11-23T02:59:23.973Z,95.82
2018-11-23T03:00:20.634Z,95.92
2018-11-23T03:01:20.611Z,95.92
2018-11-23T03:02:20.581Z,96.03
2018-11-23T03:03:20.572Z,95.61
2018-11-23T03:04:20.631Z,95.72
2018-11-23T03:05:20.546Z,95.29
2018-11-23T03:06:20.539Z,95.29
2018-11-23T03:07:20.544Z,95.61
2018-11-23T03:08:20.513Z,95.72
2018-11-23T03:09:20.510Z,94.88
2018-11-23T03:10:20.533Z,96.03
2018-11-23T03:11:20.487Z,96.13
2018-11-23T03:12:20.483Z,95.40
2018-11-23T03:13:20.476Z,95.50
2018-11-23T03:14:20.449Z,95.40
2018-11-23T03:15:20.466Z,95.40
2018-11-23T03:16:20.427Z,95.29
2018-11-23T03:17:20.421Z,95.44
2018-11-23T03:18:20.407Z,95.97
2018-11-23T03:19:20.395Z,96.07
2018-11-23T03:20:20.412Z,95.97
2018-11-23T03:21:20.391Z,96.07
2018-11-23T03:22:20.367Z,95.82
2018-11-23T03:23:20.361Z,95.50
2018-11-23T03:24:20.342Z,95.92
2018-11-23T03:25:20.356Z,95.61
2018-11-23T03:26:20.320Z,95.61
2018-11-23T03:27:20.352Z,95.19
2018-11-23T03:28:20.303Z,95.82
2018-11-23T03:29:20.291Z,95.40
2018-11-23T03:30:20.311Z,95.55
2018-11-23T03:31:20.270Z,96.07
2018-11-23T03:32:20.262Z,95.34
2018-11-23T03:33:20.253Z,95.86
2018-11-23T03:34:20.253Z,95.97
2018-11-23T03:35:20.257Z,96.07
2018-11-23T03:36:20.217Z,95.76
2018-11-23T03:37:20.211Z,96.28
2018-11-23T03:38:20.196Z,96.43
2018-11-23T03:39:20.193Z,97.43
2018-11-23T03:40:20.196Z,97.11
2018-11-23T03:41:20.172Z,97.58
2018-11-23T03:42:20.147Z,97.78
2018-11-23T03:43:20.143Z,97.78
2018-11-23T03:44:20.131Z,97.68
2018-11-23T03:45:20.145Z,97.27
2018-11-23T03:46:20.119Z,97.47
2018-11-23T03:47:20.094Z,97.78
2018-11-23T03:48:20.086Z,97.99
2018-11-23T03:49:20.084Z,97.89
2018-11-23T03:50:20.098Z,98.14
2018-11-23T03:51:20.059Z,98.46
2018-11-23T03:52:20.043Z,98.14
2018-11-23T03:53:20.073Z,98.88
2018-11-23T03:54:20.023Z,99.19
2018-11-23T03:55:20.059Z,98.77
2018-11-23T03:56:19.999Z,98.88
2018-11-23T03:57:19.996Z,98.88
2018-11-23T03:58:19.978Z,98.98
2018-11-23T03:59:19.968Z,98.88
2018-11-23T04:00:19.959Z,99.08
2018-11-23T04:01:19.976Z,98.88
2018-11-23T04:02:19.936Z,99.29
2018-11-23T04:03:19.924Z,99.29
2018-11-23T04:04:19.914Z,98.77
2018-11-23T04:05:19.932Z,98.88
2018-11-23T04:06:19.920Z,99.34
2018-11-23T04:07:19.891Z,98.77
2018-11-23T04:08:19.869Z,99.29
2018-11-23T04:09:19.861Z,99.40
2018-11-23T04:10:19.859Z,99.99
2018-11-23T04:11:19.844Z,99.71
2018-11-23T04:12:19.854Z,99.99
2018-11-23T04:13:20.426Z,99.71
2018-11-23T04:14:19.815Z,99.82
2018-11-23T04:15:19.800Z,99.82
2018-11-23T04:16:19.783Z,99.92
2018-11-23T04:17:19.806Z,99.92
2018-11-23T04:18:19.765Z,99.82
2018-11-23T04:19:19.753Z,99.99
2018-11-23T04:20:19.743Z,99.61
2018-11-23T04:21:19.735Z,99.29
2018-11-23T04:22:19.743Z,99.51
2018-11-23T04:23:19.725Z,99.92
2018-11-23T04:24:19.702Z,99.71
2018-11-23T04:25:19.688Z,99.99
2018-11-23T04:26:24.574Z,99.51
2018-11-23T04:27:20.689Z,99.29
2018-11-23T04:28:19.659Z,99.40
2018-11-23T04:29:19.643Z,99.34
2018-11-23T04:30:19.631Z,99.29
2018-11-23T04:31:19.638Z,99.29
2018-11-23T04:32:19.648Z,99.19
2018-11-23T04:33:19.599Z,99.29
2018-11-23T04:34:19.592Z,99.71
2018-11-23T04:35:19.581Z,99.29
2018-11-23T04:36:19.566Z,99.40
2018-11-23T04:37:19.570Z,98.77
2018-11-23T04:38:19.586Z,99.29
2018-11-23T04:39:19.535Z,99.51
2018-11-23T04:40:19.529Z,99.40
2018-11-23T04:41:19.517Z,99.29
2018-11-23T04:42:19.509Z,99.19
2018-11-23T04:43:19.492Z,99.29
2018-11-23T04:44:19.510Z,99.34
2018-11-23T04:45:19.472Z,99.96
2018-11-23T04:46:19.460Z,99.76
2018-11-23T04:47:19.457Z,99.82
2018-11-23T04:48:19.443Z,99.71
2018-11-23T04:49:19.468Z,99.92
2018-11-23T04:50:19.430Z,99.82
2018-11-23T04:51:19.412Z,99.61
2018-11-23T04:52:19.424Z,99.99
2018-11-23T04:53:19.427Z,99.99
2018-11-23T04:54:19.412Z,99.82
2018-11-23T04:55:19.364Z,99.99
2018-11-23T04:56:19.351Z,99.96
2018-11-23T04:57:19.346Z,99.61
2018-11-23T04:58:19.333Z,99.61
2018-11-23T04:59:19.327Z,99.44
2018-11-23T05:00:19.348Z,99.40
2018-11-23T05:01:19.302Z,99.86
2018-11-23T05:02:19.292Z,99.99
2018-11-23T05:03:19.279Z,99.99
2018-11-23T05:04:19.295Z,99.86
2018-11-23T05:05:19.281Z,99.99
2018-11-23T05:06:19.248Z,99.86
2018-11-23T05:07:19.247Z,99.86
2018-11-23T05:08:19.247Z,99.86
2018-11-23T05:09:19.228Z,99.55
2018-11-23T05:10:19.239Z,99.82
2018-11-23T05:11:19.193Z,99.99
2018-11-23T05:12:19.180Z,99.99
2018-11-23T05:13:19.170Z,99.99
2018-11-23T05:14:19.170Z,99.99
2018-11-23T05:15:19.150Z,99.99
2018-11-23T05:16:19.164Z,99.99
2018-11-23T05:17:19.130Z,99.99
2018-11-23T05:18:19.165Z,99.29
2018-11-23T05:19:19.120Z,99.76
2018-11-23T05:20:19.094Z,99.92
2018-11-23T05:21:19.116Z,99.82
2018-11-23T05:22:19.077Z,99.82
2018-11-23T05:23:19.073Z,99.61
2018-11-23T05:24:19.061Z,99.92
2018-11-23T05:25:19.051Z,99.99
2018-11-23T05:26:19.031Z,99.71
2018-11-23T05:27:19.079Z,99.71
2018-11-23T05:28:19.010Z,99.82
2018-11-23T05:29:19.004Z,99.92
2018-11-23T05:30:19.029Z,99.99
2018-11-23T05:31:18.991Z,99.77
2018-11-23T05:32:19.005Z,99.56
2018-11-23T05:33:18.961Z,99.46
2018-11-23T05:34:18.960Z,99.25
2018-11-23T05:35:18.937Z,98.83
2018-11-23T05:36:18.926Z,98.47
2018-11-23T05:37:18.953Z,98.72
2018-11-23T05:38:18.901Z,98.83
2018-11-23T05:39:18.889Z,98.72
2018-11-23T05:40:18.881Z,98.62
2018-11-23T05:41:18.879Z,98.93
2018-11-23T05:42:18.881Z,98.83
2018-11-23T05:43:18.870Z,98.88
2018-11-23T05:44:18.834Z,98.72
2018-11-23T05:45:18.828Z,98.62
2018-11-23T05:46:18.814Z,99.04
2018-11-23T05:47:18.801Z,98.52
2018-11-23T05:48:19.044Z,98.72
2018-11-23T05:49:18.793Z,98.41
2018-11-23T05:50:18.772Z,98.62
2018-11-23T05:51:18.764Z,98.83
2018-11-23T05:52:18.756Z,98.93
2018-11-23T05:53:18.758Z,99.25
2018-11-23T05:54:18.734Z,98.52
2018-11-23T05:55:18.720Z,98.21
2018-11-23T05:56:18.732Z,98.10
2018-11-23T05:57:18.701Z,98.41
2018-11-23T05:58:18.782Z,98.41
2018-11-23T05:59:18.672Z,98.62
2018-11-23T06:00:18.667Z,98.93
2018-11-23T06:01:18.650Z,98.10
2018-11-23T06:02:18.644Z,98.10
2018-11-23T06:03:18.636Z,98.10
2018-11-23T06:04:18.649Z,98.41
2018-11-23T06:05:18.606Z,98.21
2018-11-23T06:06:18.597Z,98.10
2018-11-23T06:07:18.611Z,97.89
2018-11-23T06:08:18.582Z,98.05
2018-11-23T06:09:18.589Z,98.16
2018-11-23T06:10:18.559Z,97.64
2018-11-23T06:11:18.544Z,97.64
2018-11-23T06:12:18.531Z,97.43
2018-11-23T06:13:18.532Z,98.37
2018-11-23T06:14:18.654Z,98.05
2018-11-23T06:15:18.499Z,98.05
2018-11-23T06:16:18.488Z,98.26
2018-11-23T06:17:18.481Z,97.64
2018-11-23T06:18:18.478Z,97.95
2018-11-23T06:19:18.457Z,97.43
2018-11-23T06:20:18.482Z,97.32
2018-11-23T06:21:18.435Z,97.74
2018-11-23T06:22:18.423Z,97.53
2018-11-23T06:23:18.414Z,97.11
2018-11-23T06:24:18.407Z,97.43
2018-11-23T06:25:18.416Z,97.32
2018-11-23T06:26:18.382Z,97.64
2018-11-23T06:27:18.371Z,97.53
2018-11-23T06:28:18.358Z,97.85
2018-11-23T06:29:18.350Z,97.74
2018-11-23T06:30:18.362Z,97.53
2018-11-23T06:31:18.331Z,98.16
2018-11-23T06:32:18.316Z,98.05
2018-11-23T06:33:18.313Z,98.05
2018-11-23T06:34:18.298Z,98.26
2018-11-23T06:35:18.307Z,97.74
2018-11-23T06:36:18.275Z,97.32
2018-11-23T06:37:18.263Z,97.43
2018-11-23T06:38:18.261Z,97.64
2018-11-23T06:39:18.250Z,97.32
2018-11-23T06:40:18.266Z,97.43
2018-11-23T06:41:18.220Z,97.64
2018-11-23T06:42:18.210Z,97.85
2018-11-23T06:43:18.198Z,97.32
2018-11-23T06:44:18.193Z,97.32
2018-11-23T06:45:18.176Z,97.32
2018-11-23T06:46:18.192Z,97.64
2018-11-23T06:47:18.169Z,97.85
2018-11-23T06:48:18.207Z,97.85
2018-11-23T06:49:18.136Z,97.95
2018-11-23T06:50:18.122Z,97.22
2018-11-23T06:51:18.146Z,97.43
2018-11-23T06:52:18.100Z,97.64
2018-11-23T06:53:18.095Z,97.53
2018-11-23T06:54:18.121Z,97.01
2018-11-23T06:55:18.068Z,97.22
2018-11-23T06:56:18.092Z,97.11
2018-11-23T06:57:18.046Z,97.22
2018-11-23T06:58:18.102Z,97.32
2018-11-23T06:59:18.030Z,97.22
2018-11-23T07:00:18.013Z,97.11
2018-11-23T07:01:18.006Z,97.11
2018-11-23T07:02:18.014Z,97.01
2018-11-23T07:03:17.981Z,96.70
2018-11-23T07:04:17.969Z,97.32
2018-11-23T07:05:17.959Z,97.22
2018-11-23T07:06:17.959Z,97.32
2018-11-23T07:07:18.011Z,97.37
2018-11-23T07:08:17.927Z,97.05
2018-11-23T07:09:17.917Z,97.43
2018-11-23T07:10:17.911Z,97.78
2018-11-23T07:11:17.894Z,97.74
2018-11-23T07:12:17.884Z,97.78
2018-11-23T07:13:17.899Z,97.78
2018-11-23T07:14:17.869Z,97.37
2018-11-23T07:15:17.852Z,97.68
2018-11-23T07:16:17.842Z,97.16
2018-11-23T07:17:17.830Z,97.47
2018-11-23T07:18:17.849Z,97.27
2018-11-23T07:19:17.808Z,97.99
2018-11-23T07:20:17.801Z,97.99
2018-11-23T07:21:21.577Z,97.58
2018-11-23T07:22:17.776Z,97.68
2018-11-23T07:23:17.794Z,97.78
2018-11-23T07:24:17.800Z,97.47
2018-11-23T07:25:17.745Z,97.78
2018-11-23T07:26:17.732Z,97.78
2018-11-23T07:27:17.738Z,98.10
2018-11-23T07:28:17.764Z,98.41
2018-11-23T07:29:17.700Z,98.10
2018-11-23T07:30:17.691Z,98.21
2018-11-23T07:31:17.678Z,98.21
2018-11-23T07:32:17.668Z,98.26
2018-11-23T07:33:17.656Z,98.37
2018-11-23T07:34:17.671Z,97.64
2018-11-23T07:35:17.639Z,97.68
2018-11-23T07:36:17.630Z,97.43
2018-11-23T07:37:17.631Z,97.11
2018-11-23T07:38:17.656Z,97.32
2018-11-23T07:39:17.596Z,97.53
2018-11-23T07:40:17.587Z,97.22
2018-11-23T07:41:17.575Z,97.11
2018-11-23T07:42:17.559Z,97.22
2018-11-23T07:43:17.553Z,97.22
2018-11-23T07:44:17.596Z,97.43
2018-11-23T07:45:17.542Z,97.43
2018-11-23T07:46:17.522Z,97.32
2018-11-23T07:47:17.507Z,96.44
2018-11-23T07:48:17.495Z,96.34
2018-11-23T07:49:17.774Z,96.66
2018-11-23T07:50:17.471Z,96.13
2018-11-23T07:51:17.462Z,96.13
2018-11-23T07:52:17.452Z,96.55
2018-11-23T07:53:17.445Z,96.34
2018-11-23T07:54:17.461Z,95.92
2018-11-23T07:55:17.421Z,95.92
2018-11-23T07:56:17.411Z,96.13
2018-11-23T07:57:17.402Z,96.13
2018-11-23T07:58:17.387Z,96.03
2018-11-23T07:59:17.431Z,96.44
2018-11-23T08:00:17.364Z,96.03
2018-11-23T08:01:17.354Z,95.67
2018-11-23T08:02:17.343Z,95.92
2018-11-23T08:03:17.339Z,95.98
2018-11-23T08:04:17.429Z,95.78
2018-11-23T08:05:17.345Z,95.88
2018-11-23T08:06:17.304Z,95.56
2018-11-23T08:07:17.296Z,96.09
2018-11-23T08:08:17.278Z,95.98
2018-11-23T08:09:17.271Z,95.56
2018-11-23T08:10:17.291Z,95.36
2018-11-23T08:11:17.245Z,95.36
2018-11-23T08:12:17.234Z,95.04
2018-11-23T08:13:17.223Z,95.56
2018-11-23T08:14:17.216Z,95.56
2018-11-23T08:15:17.202Z,95.52
2018-11-23T08:16:17.216Z,95.36
2018-11-23T08:17:17.182Z,95.36
2018-11-23T08:18:17.168Z,94.79
2018-11-23T08:19:17.158Z,95.31
2018-11-23T08:20:17.156Z,94.69
2018-11-23T08:21:17.161Z,94.27
2018-11-23T08:22:17.126Z,94.37
2018-11-23T08:23:17.114Z,94.17
2018-11-23T08:24:17.105Z,93.75
2018-11-23T08:25:17.093Z,94.12
2018-11-23T08:26:17.108Z,93.71
2018-11-23T08:27:17.072Z,94.12
2018-11-23T08:28:17.070Z,94.17
2018-11-23T08:29:17.054Z,94.12
2018-11-23T08:30:17.040Z,94.64
2018-11-23T08:31:17.054Z,94.02
2018-11-23T08:32:17.032Z,94.12
2018-11-23T08:33:17.008Z,94.08
2018-11-23T08:34:16.997Z,94.96
2018-11-23T08:35:16.987Z,94.85
2018-11-23T08:36:17.000Z,93.98
2018-11-23T08:37:16.967Z,94.18
2018-11-23T08:38:16.957Z,93.87
2018-11-23T08:39:16.947Z,93.56
2018-11-23T08:40:16.935Z,93.46
2018-11-23T08:41:16.962Z,93.35
2018-11-23T08:42:16.919Z,93.56
2018-11-23T08:43:16.916Z,93.24
2018-11-23T08:44:16.903Z,93.46
2018-11-23T08:45:16.922Z,93.24
2018-11-23T08:46:16.875Z,93.14
2018-11-23T08:47:16.918Z,93.10
2018-11-23T08:48:16.858Z,93.10
2018-11-23T08:49:16.848Z,93.20
2018-11-23T08:50:16.875Z,93.52
2018-11-23T08:51:16.820Z,93.41
2018-11-23T08:52:16.851Z,92.43
2018-11-23T08:53:16.950Z,93.58
2018-11-23T08:54:16.785Z,92.74
2018-11-23T08:55:16.797Z,92.80
2018-11-23T08:56:16.776Z,92.85
2018-11-23T08:57:16.789Z,93.43
2018-11-23T08:58:16.791Z,92.49
2018-11-23T08:59:16.837Z,92.54
2018-11-23T09:00:16.728Z,92.18
2018-11-23T09:01:16.716Z,92.08
2018-11-23T09:02:16.745Z,92.03
2018-11-23T09:03:16.715Z,92.35
2018-11-23T09:04:16.683Z,92.35
2018-11-23T09:05:16.731Z,91.93
2018-11-23T09:06:16.662Z,91.31
2018-11-23T09:07:16.656Z,91.41
2018-11-23T09:08:16.669Z,91.47
2018-11-23T09:09:16.631Z,90.85
2018-11-23T09:10:16.634Z,91.27
2018-11-23T09:11:16.613Z,91.37
2018-11-23T09:12:16.595Z,91.47
2018-11-23T09:13:16.584Z,91.16
2018-11-23T09:14:16.598Z,91.37
2018-11-23T09:15:17.546Z,90.44
2018-11-23T09:16:16.556Z,90.08
2018-11-23T09:17:16.547Z,89.87
2018-11-23T09:18:16.631Z,90.39
2018-11-23T09:19:16.554Z,90.60
2018-11-23T09:20:16.519Z,89.77
2018-11-23T09:21:16.531Z,90.08
2018-11-23T09:22:23.180Z,89.87
2018-11-23T09:23:17.476Z,89.62
2018-11-23T09:24:16.494Z,89.00
2018-11-23T09:25:16.458Z,89.11
2018-11-23T09:26:16.466Z,88.85
2018-11-23T09:27:16.434Z,88.85
2018-11-23T09:28:16.427Z,88.85
2018-11-23T09:29:16.446Z,88.23
2018-11-23T09:30:16.407Z,88.44
2018-11-23T09:31:16.395Z,88.54
2018-11-23T09:32:16.418Z,88.23
2018-11-23T09:33:16.373Z,88.02
2018-11-23T09:34:16.373Z,88.65
2018-11-23T09:35:16.378Z,88.13
2018-11-23T09:36:16.337Z,87.92
2018-11-23T09:37:16.331Z,88.23
2018-11-23T09:38:16.357Z,89.03
2018-11-23T09:39:16.307Z,88.92
2018-11-23T09:40:16.388Z,87.88
2018-11-23T09:41:16.287Z,88.26
2018-11-23T09:42:16.275Z,87.43
2018-11-23T09:43:16.268Z,87.63
2018-11-23T09:44:16.254Z,87.12
2018-11-23T09:45:16.296Z,86.97
2018-11-23T09:46:16.234Z,85.73
2018-11-23T09:47:16.228Z,85.63
2018-11-23T09:48:16.217Z,85.42
2018-11-23T09:49:16.206Z,85.58
2018-11-23T09:50:16.232Z,85.27
2018-11-23T09:51:16.177Z,85.06
2018-11-23T09:52:16.168Z,85.27
2018-11-23T09:53:16.154Z,86.41
2018-11-23T09:54:16.147Z,85.69
2018-11-23T09:55:16.185Z,86.10
2018-11-23T09:56:16.173Z,85.06
2018-11-23T09:57:16.114Z,85.11
2018-11-23T09:58:16.101Z,85.73
2018-11-23T09:59:16.105Z,86.04
2018-11-23T10:00:16.107Z,85.52
2018-11-23T10:01:16.104Z,85.83
2018-11-23T10:02:16.093Z,85.83
2018-11-23T10:03:16.062Z,85.83
2018-11-23T10:04:16.061Z,86.55
2018-11-23T10:05:16.031Z,85.73
2018-11-23T10:06:16.062Z,86.15
2018-11-23T10:07:16.015Z,87.07
2018-11-23T10:08:16.014Z,86.25
2018-11-23T10:09:15.992Z,85.73
2018-11-23T10:10:16.044Z,85.52
2018-11-23T10:11:15.963Z,85.94
2018-11-23T10:12:16.010Z,86.15
2018-11-23T10:13:15.959Z,85.79
2018-11-23T10:14:15.955Z,85.73
2018-11-23T10:15:15.926Z,86.93
2018-11-23T10:16:15.921Z,85.79
2018-11-23T10:17:16.001Z,85.27
2018-11-23T10:18:15.915Z,85.17
2018-11-23T10:19:15.878Z,85.89
2018-11-23T10:20:15.869Z,85.89
2018-11-23T10:21:15.862Z,85.58
2018-11-23T10:22:15.918Z,84.86
2018-11-23T10:23:15.893Z,85.27
2018-11-23T10:24:15.922Z,85.34
2018-11-23T10:25:15.817Z,85.03
2018-11-23T10:26:15.912Z,85.03
2018-11-23T10:27:15.805Z,85.13
2018-11-23T10:28:15.889Z,84.88
2018-11-23T10:29:15.792Z,83.71
2018-11-23T10:30:15.781Z,83.71
2018-11-23T10:31:15.754Z,83.19
2018-11-23T10:32:15.784Z,82.78
2018-11-23T10:33:15.754Z,83.05
2018-11-23T10:34:15.726Z,82.64
2018-11-23T10:35:15.709Z,83.22
2018-11-23T10:36:15.715Z,81.46
2018-11-23T10:37:15.705Z,81.15
2018-11-23T10:38:15.768Z,80.32
2018-11-23T10:39:15.669Z,81.35
2018-11-23T10:40:15.657Z,81.56
2018-11-23T10:41:15.646Z,80.49
2018-11-23T10:42:15.635Z,79.70
2018-11-23T10:43:15.655Z,79.46
2018-11-23T10:44:15.626Z,79.56
2018-11-23T10:45:15.607Z,79.56
2018-11-23T10:46:15.597Z,79.77
2018-11-23T10:47:15.581Z,79.97
2018-11-23T10:48:15.579Z,79.32
2018-11-23T10:49:15.583Z,79.05
2018-11-23T10:50:15.576Z,78.91
2018-11-23T10:51:15.539Z,79.46
2018-11-23T10:52:15.530Z,78.91
2018-11-23T10:53:15.521Z,79.01
2018-11-23T10:54:15.528Z,79.83
2018-11-23T10:55:15.494Z,78.91
2018-11-23T10:56:15.494Z,78.91
2018-11-23T10:57:15.489Z,78.91
2018-11-23T10:58:15.461Z,78.91
2018-11-23T10:59:15.486Z,78.91
2018-11-23T11:00:15.438Z,78.87
2018-11-23T11:01:15.426Z,78.97
2018-11-23T11:02:15.441Z,78.56
2018-11-23T11:03:15.410Z,79.08
2018-11-23T11:04:15.405Z,78.87
2018-11-23T11:05:15.405Z,78.91
2018-11-23T11:06:15.375Z,78.70
2018-11-23T11:07:15.361Z,78.97
2018-11-23T11:08:15.352Z,79.11
2018-11-23T11:09:15.362Z,78.91
2018-11-23T11:10:15.351Z,78.39
2018-11-23T11:11:15.317Z,77.98
2018-11-23T11:12:15.308Z,79.01
2018-11-23T11:13:15.292Z,78.91
2018-11-23T11:14:15.314Z,78.70
2018-11-23T11:15:15.270Z,78.18
2018-11-23T11:16:15.277Z,79.22
2018-11-23T11:17:15.249Z,80.04
2018-11-23T11:18:15.241Z,79.28
2018-11-23T11:19:15.227Z,79.52
2018-11-23T11:20:15.253Z,78.66
2018-11-23T11:21:15.252Z,78.97
2018-11-23T11:22:15.194Z,78.56
2018-11-23T11:23:15.183Z,78.97
2018-11-23T11:24:15.229Z,78.97
2018-11-23T11:25:15.162Z,78.56
2018-11-23T11:26:15.151Z,78.63
2018-11-23T11:27:15.153Z,78.11
2018-11-23T11:28:15.126Z,78.52
2018-11-23T11:29:15.147Z,78.42
2018-11-23T11:30:15.109Z,78.11
2018-11-23T11:31:15.097Z,77.15
2018-11-23T11:32:15.097Z,78.28
2018-11-23T11:33:15.123Z,77.15
2018-11-23T11:34:15.068Z,77.35
2018-11-23T11:35:15.079Z,77.97
2018-11-23T11:36:15.047Z,77.45
2018-11-23T11:37:15.026Z,77.97
2018-11-23T11:38:15.023Z,77.15
2018-11-23T11:39:18.042Z,77.76
2018-11-23T11:40:15.080Z,77.15
2018-11-23T11:41:14.983Z,77.83
2018-11-23T11:42:14.996Z,77.62
2018-11-23T11:43:14.968Z,77.62
2018-11-23T11:44:14.949Z,77.42
2018-11-23T11:45:14.940Z,77.52
2018-11-23T11:46:14.962Z,77.52
2018-11-23T11:47:14.936Z,76.59
2018-11-23T11:48:14.909Z,76.08
2018-11-23T11:49:14.897Z,77.48
2018-11-23T11:50:14.887Z,76.66
2018-11-23T11:51:17.664Z,76.35
2018-11-23T11:52:14.863Z,77.28
2018-11-23T11:53:14.864Z,76.56
2018-11-23T11:54:14.842Z,75.63
2018-11-23T11:55:14.831Z,76.73
2018-11-23T11:56:14.846Z,75.60
2018-11-23T11:57:14.817Z,75.29
2018-11-23T11:58:14.800Z,75.18
2018-11-23T11:59:14.793Z,75.49
2018-11-23T12:00:14.792Z,74.26
2018-11-23T12:01:14.803Z,73.85
2018-11-23T12:02:14.770Z,74.22
2018-11-23T12:03:14.770Z,75.25
2018-11-23T12:04:14.736Z,75.05
2018-11-23T12:05:14.741Z,74.43
2018-11-23T12:06:14.719Z,74.02
2018-11-23T12:07:14.726Z,75.35
2018-11-23T12:08:14.736Z,73.81
2018-11-23T12:09:14.688Z,75.46
2018-11-23T12:10:14.672Z,75.05
2018-11-23T12:11:14.659Z,74.33
2018-11-23T12:12:14.675Z,75.05
2018-11-23T12:13:14.667Z,74.95
2018-11-23T12:14:14.635Z,75.35
2018-11-23T12:15:14.616Z,75.15
2018-11-23T12:16:14.605Z,75.15
2018-11-23T12:17:14.627Z,75.52
2018-11-23T12:18:14.586Z,74.74
2018-11-23T12:19:14.619Z,75.25
2018-11-23T12:20:14.564Z,74.63
2018-11-23T12:21:14.552Z,75.15
2018-11-23T12:22:14.575Z,74.22
2018-11-23T12:23:14.531Z,75.56
2018-11-23T12:24:14.521Z,73.78
2018-11-23T12:25:14.523Z,73.68
2018-11-23T12:26:14.501Z,74.50
2018-11-23T12:27:14.519Z,73.57
2018-11-23T12:28:14.481Z,73.88
2018-11-23T12:29:14.467Z,73.44
2018-11-23T12:30:14.459Z,73.54
2018-11-23T12:31:14.477Z,73.95
2018-11-23T12:32:14.432Z,73.85
2018-11-23T12:33:14.446Z,73.95
2018-11-23T12:34:14.417Z,73.02
2018-11-23T12:35:14.410Z,73.33
2018-11-23T12:36:14.397Z,73.95
2018-11-23T12:37:14.477Z,73.30
2018-11-23T12:38:14.400Z,72.81
2018-11-23T12:39:14.359Z,73.09
2018-11-23T12:40:14.350Z,72.99
2018-11-23T12:41:14.337Z,71.75
2018-11-23T12:42:14.327Z,73.88
2018-11-23T12:43:14.361Z,71.79
2018-11-23T12:44:14.374Z,70.12
2018-11-23T12:45:14.297Z,67.26
2018-11-23T12:46:14.292Z,64.07
2018-11-23T12:47:14.272Z,61.56
2018-11-23T12:48:14.293Z,60.07
2018-11-23T12:49:14.250Z,59.30
2018-11-23T12:50:14.267Z,57.95
2018-11-23T12:51:14.237Z,57.52
2018-11-23T12:52:14.221Z,55.35